Aérodrome :
LOGIN :

S'inscrire | Disclaimer

   EN    FR    IT 

 










Légende :    VFR   VFR Marginal   IFR   IFR Intensif   IFR Très Intensif
Visi : 
Plafond : 
>= 8 km
>= 3000ft
5 à 8 km
1000 à 3000 ft
1500m à 5 km
500 à 1000 ft
800 à 1500m
200 à 500 ft
< 800m
< 200 ft
Symboles :   Orages  Brouillard  Fortes neiges  Fortes précipitations  Vent > 20 kt
SIGMETs :   Divers  Orages  Givrage  Turbulence  Onde Orograph.  Cendres Volcan.






- Altitude de l'aérodrome : 502 ft
- Code IATA : ORK


EICK - Cork

DERNIER METAR :
  • 032130Z 23006KT 190V280 9999 FEW002 BKN004 14/14 Q1007 TEMPO 3000 BKN003

METARs EXPIRÉS :
  • 032100Z 23011KT 9999 FEW002 BKN004 15/14 Q1007 TEMPO 3000 BKN003
  • 032030Z 23012KT 9999 FEW003 BKN005 15/14 Q1007 TEMPO 3000 BKN003
  • 032000Z 23010KT 9999 FEW003 BKN005 15/14 Q1007 TEMPO 3000 BKN003
  • 031930Z 22011KT 9999 FEW003 BKN005 15/14 Q1007 TEMPO 3000 BKN003
  • 031900Z 22014KT 9999 -DZ FEW002 BKN004 15/14 Q1007 TEMPO 2000 BKN002

TAF TAF EICK
Valide du 03 à 18h jusqu'au 04 à 18h UTC


031700Z 0318/0418 23014KT 7000 BKN005
TEMPO 0318/0415 3000 -RADZ BR BKN003
PROB40
TEMPO 0318/0412 0400 FG BKN001
BECMG 0415/0417 9999 BKN008



MET'MAP, la Météo Aéronautique d'un coup d'oeil ! - Copyright ORBIFLY Décembre 2007 - Disclaimer

ORBIFLY MET'MAP TEAM :

Programmation & Développement : Alexandra Zaïnal
Sur une idée originale de : Baudouin d'Aumeries
Assistance à la programmation : Marc-Olivier Méhu
Soutien technique & logistique : Manuel Goepfert

Contact : metmap@orbifly.com




SOURCES & CREDITS :

   NOAA